createdAt,value
2023-05-20T00:00:11.486Z,100691.03
2023-05-20T00:05:13.937Z,100668.69
2023-05-20T00:10:16.196Z,100687.13
2023-05-20T00:15:18.539Z,100686.00
2023-05-20T00:20:21.391Z,100669.56
2023-05-20T00:25:23.697Z,100649.13
2023-05-20T00:30:26.103Z,100652.44
2023-05-20T00:35:28.452Z,100660.91
2023-05-20T00:40:30.802Z,100654.75
2023-05-20T00:45:33.475Z,100639.56
2023-05-20T00:50:36.314Z,100650.31
2023-05-20T00:55:38.937Z,100654.00
2023-05-20T01:00:41.679Z,100664.25
2023-05-20T01:05:44.053Z,100607.78
2023-05-20T01:10:50.007Z,100674.66
2023-05-20T01:15:54.709Z,100663.88
2023-05-20T01:21:02.066Z,100605.81
2023-05-20T01:26:04.805Z,100581.00
2023-05-20T01:31:18.960Z,100636.69
2023-05-20T01:36:22.806Z,100638.56
2023-05-20T01:41:27.463Z,100621.84
2023-05-20T01:46:34.275Z,100664.31
2023-05-20T01:51:37.543Z,100596.44
2023-05-20T01:56:39.978Z,100623.94
2023-05-20T02:01:42.389Z,100585.91
2023-05-20T02:06:44.891Z,100575.09
2023-05-20T02:11:47.278Z,100659.41
2023-05-20T02:16:49.546Z,100630.69
2023-05-20T02:21:54.110Z,100613.00
2023-05-20T02:26:57.885Z,100602.94
2023-05-20T02:32:00.331Z,100625.88
2023-05-20T02:37:02.976Z,100629.38
2023-05-20T02:42:05.508Z,100619.69
2023-05-20T02:47:07.998Z,100630.56
2023-05-20T02:52:10.283Z,100642.75
2023-05-20T02:57:13.025Z,100621.75
2023-05-20T03:02:15.356Z,100658.41
2023-05-20T03:07:20.175Z,100647.22
2023-05-20T03:12:22.524Z,100659.91
2023-05-20T03:17:24.792Z,100656.00
2023-05-20T03:22:27.157Z,100661.38
2023-05-20T03:27:29.558Z,100668.41
2023-05-20T03:32:31.990Z,100644.59
2023-05-20T03:37:34.385Z,100651.63
2023-05-20T03:42:40.436Z,100701.47
2023-05-20T03:47:42.770Z,100700.06
2023-05-20T03:52:45.644Z,100694.06
2023-05-20T03:57:47.883Z,100680.25
2023-05-20T04:02:50.232Z,100707.88
2023-05-20T04:07:52.646Z,100685.09
2023-05-20T04:12:54.949Z,100678.09
2023-05-20T04:17:57.256Z,100697.38
2023-05-20T04:23:00.102Z,100721.59
2023-05-20T04:28:02.959Z,100697.50
2023-05-20T04:33:05.291Z,100691.44
2023-05-20T04:38:09.243Z,100714.38
2023-05-20T04:43:11.513Z,100712.22
2023-05-20T04:48:15.092Z,100677.16
2023-05-20T04:53:18.005Z,100650.72
2023-05-20T04:58:20.925Z,100719.84
2023-05-20T05:03:23.255Z,100688.28
2023-05-20T05:08:26.923Z,100699.97
2023-05-20T05:13:29.322Z,100700.59
2023-05-20T05:18:31.630Z,100692.84
2023-05-20T05:23:34.141Z,100705.97
2023-05-20T05:28:36.499Z,100712.22
2023-05-20T05:33:38.856Z,100697.47
2023-05-20T05:38:41.431Z,100709.56
2023-05-20T05:43:43.748Z,100704.56
2023-05-20T05:48:49.280Z,100718.97
2023-05-20T05:53:51.593Z,100717.63
2023-05-20T05:58:54.101Z,100701.25
2023-05-20T06:03:56.686Z,100637.75
2023-05-20T06:08:59.502Z,100719.25
2023-05-20T06:14:03.111Z,100697.56
2023-05-20T06:19:05.999Z,100706.16
2023-05-20T06:24:08.725Z,100708.88
2023-05-20T06:29:11.014Z,100695.78
2023-05-20T06:34:13.473Z,100680.13
2023-05-20T06:39:15.841Z,100671.56
2023-05-20T06:44:19.300Z,100664.28
2023-05-20T06:49:21.815Z,100680.72
2023-05-20T06:54:24.210Z,100650.28
2023-05-20T06:59:26.572Z,100675.13
2023-05-20T07:04:28.958Z,100642.69
2023-05-20T07:09:31.270Z,100693.06
2023-05-20T07:14:33.641Z,100673.94
2023-05-20T07:19:36.018Z,100664.06
2023-05-20T07:24:39.107Z,100647.78
2023-05-20T07:29:41.502Z,100638.09
2023-05-20T07:34:44.176Z,100647.28
2023-05-20T07:39:46.423Z,100658.50
2023-05-20T07:44:48.648Z,100638.88
2023-05-20T07:49:50.982Z,100624.09
2023-05-20T07:54:53.300Z,100640.66
2023-05-20T07:59:55.550Z,100604.72
2023-05-20T08:04:57.756Z,100629.50
2023-05-20T08:09:59.957Z,100607.44
2023-05-20T08:15:02.540Z,100604.03
2023-05-20T08:20:06.413Z,100581.03
2023-05-20T08:25:09.721Z,100524.63
2023-05-20T08:30:12.414Z,100497.66
2023-05-20T08:35:14.746Z,100574.00
2023-05-20T08:40:17.464Z,100559.53
2023-05-20T08:45:28.276Z,100541.47
2023-05-20T08:50:30.622Z,100523.34
2023-05-20T08:55:43.875Z,100548.03
2023-05-20T09:00:46.947Z,100548.31
2023-05-20T09:05:49.641Z,100520.34
2023-05-20T09:10:53.974Z,100521.38
2023-05-20T09:15:56.305Z,100545.94
2023-05-20T09:20:58.681Z,100557.72
2023-05-20T09:26:04.964Z,100546.69
2023-05-20T09:31:09.286Z,100546.03
2023-05-20T09:36:12.590Z,100521.72
2023-05-20T09:41:15.825Z,100512.72
2023-05-20T09:46:19.456Z,100550.63
2023-05-20T09:51:24.750Z,100543.38
2023-05-20T09:56:29.005Z,100541.97
2023-05-20T10:01:31.639Z,100506.41
2023-05-20T10:06:39.746Z,100524.00
2023-05-20T10:11:57.069Z,100524.63
2023-05-20T10:17:16.561Z,100512.13
2023-05-20T10:22:34.311Z,100514.31
2023-05-20T10:27:47.032Z,100472.03
2023-05-20T10:32:54.408Z,100480.66
2023-05-20T10:38:10.119Z,100470.47
2023-05-20T10:43:26.907Z,100474.63
2023-05-20T10:48:32.122Z,100429.13
2023-05-20T10:53:42.643Z,100460.25
2023-05-20T10:58:45.686Z,100448.84
2023-05-20T11:03:49.860Z,100404.34
2023-05-20T11:08:52.426Z,100466.91
2023-05-20T11:13:58.007Z,100457.94
2023-05-20T11:19:00.308Z,100441.06
2023-05-20T11:24:02.654Z,100457.53
2023-05-20T11:29:05.310Z,100446.25
2023-05-20T11:34:07.701Z,100426.13
2023-05-20T11:39:15.224Z,100428.38
2023-05-20T11:44:20.831Z,100392.97
2023-05-20T11:49:23.339Z,100371.63
2023-05-20T11:54:26.502Z,100411.38
2023-05-20T11:59:28.834Z,100407.59
2023-05-20T12:04:31.314Z,100404.41
2023-05-20T12:09:33.666Z,100388.06
2023-05-20T12:14:35.962Z,100334.31
2023-05-20T12:19:39.773Z,100371.56
2023-05-20T12:24:43.548Z,100368.06
2023-05-20T12:29:45.835Z,100363.66
2023-05-20T12:34:48.214Z,100343.44
2023-05-20T12:39:50.578Z,100349.22
2023-05-20T12:44:52.925Z,100354.44
2023-05-20T12:49:55.255Z,100345.13
2023-05-20T12:54:58.061Z,100341.13
2023-05-20T13:00:00.339Z,100365.34
2023-05-20T13:05:02.770Z,100359.56
2023-05-20T13:10:05.997Z,100361.75
2023-05-20T13:15:08.839Z,100357.84
2023-05-20T13:20:12.446Z,100340.31
2023-05-20T13:25:14.849Z,100278.09
2023-05-20T13:30:17.413Z,100347.06
2023-05-20T13:35:20.074Z,100333.63
2023-05-20T13:40:23.046Z,100265.34
2023-05-20T13:45:26.162Z,100298.91
2023-05-20T13:50:28.528Z,100312.38
2023-05-20T13:55:30.954Z,100261.91
2023-05-20T14:00:33.518Z,100215.03
2023-05-20T14:05:36.437Z,100231.44
2023-05-20T14:10:38.909Z,100216.66
2023-05-20T14:15:41.670Z,100205.94
2023-05-20T14:20:44.651Z,100266.81
2023-05-20T14:25:47.095Z,100255.13
2023-05-20T14:30:49.515Z,100250.19
2023-05-20T14:35:51.905Z,100254.59
2023-05-20T14:40:54.494Z,100259.66
2023-05-20T14:45:57.059Z,100242.25
2023-05-20T14:50:59.426Z,100214.09
2023-05-20T14:56:01.877Z,100258.00
2023-05-20T15:01:04.540Z,100224.13
2023-05-20T15:06:07.021Z,100227.63
2023-05-20T15:11:10.431Z,100215.50
2023-05-20T15:16:13.887Z,100225.00
2023-05-20T15:21:16.218Z,100217.50
2023-05-20T15:26:18.619Z,100184.91
2023-05-20T15:31:21.238Z,100193.91
2023-05-20T15:36:23.673Z,100215.09
2023-05-20T15:41:26.731Z,100217.94
2023-05-20T15:46:29.180Z,100204.38
2023-05-20T15:51:31.836Z,100233.19
2023-05-20T15:56:34.358Z,100224.25
2023-05-20T16:01:37.999Z,100209.13
2023-05-20T16:06:42.432Z,100216.06
2023-05-20T16:11:44.923Z,100207.19
2023-05-20T16:16:47.242Z,100231.25
2023-05-20T16:21:49.607Z,100249.91
2023-05-20T16:26:52.428Z,100244.59
2023-05-20T16:31:54.827Z,100235.03
2023-05-20T16:36:57.226Z,100263.34
2023-05-20T16:41:59.890Z,100243.03
2023-05-20T16:47:02.518Z,100250.44
2023-05-20T16:52:05.288Z,100241.69
2023-05-20T16:57:08.697Z,100270.50
2023-05-20T17:02:11.113Z,100274.91
2023-05-20T17:07:14.067Z,100237.53
2023-05-20T17:12:16.993Z,100240.38
2023-05-20T17:17:19.362Z,100257.03
2023-05-20T17:22:21.847Z,100277.28
2023-05-20T17:27:24.387Z,100266.91
2023-05-20T17:32:26.805Z,100282.59
2023-05-20T17:37:29.852Z,100228.59
2023-05-20T17:42:32.791Z,100256.47
2023-05-20T17:47:35.148Z,100233.50
2023-05-20T17:52:37.636Z,100182.38
2023-05-20T17:57:40.033Z,100203.81
2023-05-20T18:02:47.733Z,100213.34
2023-05-20T18:07:50.109Z,100245.91
2023-05-20T18:12:52.428Z,100252.22
2023-05-20T18:17:56.863Z,100259.56
2023-05-20T18:22:59.217Z,100284.16
2023-05-20T18:28:02.160Z,100293.53
2023-05-20T18:33:04.602Z,100282.97
2023-05-20T18:38:07.536Z,100301.44
2023-05-20T18:43:09.848Z,100290.25
2023-05-20T18:48:15.824Z,100307.66
2023-05-20T18:53:22.962Z,100284.47
2023-05-20T18:58:25.164Z,100323.03
2023-05-20T19:03:27.543Z,100295.25
2023-05-20T19:08:29.747Z,100331.97
2023-05-20T19:13:32.145Z,100316.19
2023-05-20T19:18:34.465Z,100315.06
2023-05-20T19:23:37.010Z,100311.88
2023-05-20T19:28:39.682Z,100333.28
2023-05-20T19:33:41.936Z,100266.81
2023-05-20T19:38:44.794Z,100364.06
2023-05-20T19:43:47.255Z,100381.91
2023-05-20T19:48:49.712Z,100332.22
2023-05-20T19:53:52.104Z,100334.59
2023-05-20T19:58:54.480Z,100287.91
2023-05-20T20:03:56.859Z,100362.13
2023-05-20T20:08:59.380Z,100341.47
2023-05-20T20:14:01.827Z,100332.84
2023-05-20T20:19:05.515Z,100346.50
2023-05-20T20:24:07.757Z,100310.03
2023-05-20T20:29:10.212Z,100306.88
2023-05-20T20:34:12.681Z,100323.41
2023-05-20T20:39:19.452Z,100331.47
2023-05-20T20:44:22.903Z,100301.50
2023-05-20T20:49:26.901Z,100290.72
2023-05-20T20:54:30.635Z,100284.78
2023-05-20T20:59:33.076Z,100257.19
2023-05-20T21:04:35.459Z,100203.56
2023-05-20T21:09:38.315Z,100247.13
2023-05-20T21:14:40.691Z,100234.44
2023-05-20T21:19:42.962Z,100244.59
2023-05-20T21:24:45.264Z,100245.50
2023-05-20T21:29:48.902Z,100239.03
2023-05-20T21:34:51.538Z,100232.97
2023-05-20T21:39:53.927Z,100234.53
2023-05-20T21:44:56.446Z,100214.88
2023-05-20T21:49:58.827Z,100230.53
2023-05-20T21:55:01.134Z,100220.16
2023-05-20T22:00:11.538Z,100200.66
2023-05-20T22:05:13.987Z,100191.84
2023-05-20T22:10:23.335Z,100206.09
2023-05-20T22:15:26.625Z,100202.00
2023-05-20T22:20:29.128Z,100186.38
2023-05-20T22:25:32.043Z,100220.81
2023-05-20T22:30:34.801Z,100163.59
2023-05-20T22:35:37.174Z,100178.09
2023-05-20T22:40:39.864Z,100175.91
2023-05-20T22:45:42.136Z,100197.00
2023-05-20T22:50:44.399Z,100207.19
2023-05-20T22:55:46.740Z,100177.66
2023-05-20T23:00:49.288Z,100154.34
2023-05-20T23:05:51.604Z,100157.13
2023-05-20T23:10:53.978Z,100154.78
2023-05-20T23:15:56.249Z,100159.09
2023-05-20T23:20:58.635Z,100168.34
2023-05-20T23:26:01.992Z,100170.03
2023-05-20T23:31:04.394Z,100164.97
2023-05-20T23:36:09.757Z,100148.50
2023-05-20T23:41:12.193Z,100156.22
2023-05-20T23:46:14.716Z,100143.44
2023-05-20T23:51:17.082Z,100146.84
2023-05-20T23:56:19.320Z,100135.19
